Jabbeke, Belgium
Current Conditions -  °F | °C
As of 9:50 PM on Sunday 21 Dec 2014 (Local Time) from EBOS Reporting Station
Broken Clouds Broken Clouds  
Wind Chill: 50°   Ceiling: 1600
Heat Index: 50°   Visibility: 6mi
Dew Point: 46°   Wind: 24mph
Humidity: 87%   Direction: 230°SW
Pressure: 30.21"   Gusts: NA
Location:  51.18°N, 3.09°E
Report Text: EBOS 212050Z 23021KT 9999 BKN016 BKN040 10/08 Q1023 BECMG BKN012 TEMPO 24022G32KT 4000 -RADZ BKN008
Loading
Personal Weather Stations






























Interactive Weather Map New forecast layout! Learn more

10-Day Weather Forecast

Advertisements
Track Severe Weather on mobile